Tyler, TX

08:33 PM CDT on august 22, 2014 (GMT -0500)
McDonaldRd | Change Station
CLOSE
Current Station
Staţie meteo personală
Location: Tyler, TX
Elevation: 623 ft
Nearby Weather Stations

Elev 623 ft 32.32 °N, 95.27 °W | Updated 1 minute ago

Clear
Cer senin
89.2 °F
Feels Like 97 °F
N
1.0
Vânt variabil Vânt from est
Gusts 2.0 mph

astăzi
High -- | Low -- °F
--% Chance of Precip.
Ieri
High -- | Low -- °F
Precip. -- inch
6:49 AM 7:57 PM
Semilună în descreştere, 6% visible
Presiunea 29.96 inch
Vizibilitatea 10.0 mile
Nori Cer senin
Indicele de căldură 97 °F
Punctul de rouă 72 °F
Umiditatea 58%
Precipitaţii 0.00 inch
Adâncimea zăpezii Not available.
UV 0 out of 12
Pollen 8.50 out of 12
Ozon Bună
PM2.5 Moderată
Flu Activity Not available.
METAR KTYR 230053Z 15008KT 10SM CLR 32/22 A2998 RMK AO2 SLP144 T03170222

More Conditions Fewer Conditions

Presiunea 29.96 inch
Vizibilitatea 10.0 mile
Nori Cer senin
Indicele de căldură 97 °F
Punctul de rouă 72 °F
Umiditatea 58%
Precipitaţii 0.00 inch
Adâncimea zăpezii Not available.
UV 0 out of 12
Pollen 8.50 out of 12
Ozon Bună
PM2.5 Moderată
Flu Activity Not available.
METAR KTYR 230053Z 15008KT 10SM CLR 32/22 A2998 RMK AO2 SLP144 T03170222

More Conditions Fewer Conditions

10-Day Weather Forecast

Almanac

Astronomie

Aug. 22, 2014 Răsărit Apus
Timpul Actual 6:49 AM CDT 7:57 PM CDT
Crepusculul Civil 6:24 AM CDT 8:23 PM CDT
Crepusculul nautic 5:54 AM CDT 8:53 PM CDT
Răsărit Astronomic 5:22 AM CDT 9:24 PM CDT
Luna 4:17 AM CDT (8/22) 6:03 PM CDT (8/22)
Durata zilei lumină 13h 58m
Lungimea zilei
13h 07m
Tomorrow will be 1m 49s shorter.
Semilună în descreştere, 6% of the Moon is Illuminated
astăzi
Semilună în descreştere
Aug 25
New
Sep 2
Primul pătrar
Sep 8
Lună plină
Sep 15
Ultimul pătrar

Extremele de azi

State Highs State Lows

Community

WunderPhotos

Upload Photos

1,746,337 photos uploaded!

WunderBlogs® & News

Nearby

Calitatea aerului

  Calitatea aerului Index de calitate a aerului Poluat
Ieri Moderată
PM2.5
Ieri Bună
OZONE
actual Moderată
PM2.5
actual Bună
OZONE
vineri Bună
PM10
vineri Bună
OZONE
sâmbătă Bună
PM10
sâmbătă Bună
OZONE
duminică Bună
PM10
duminică Bună
OZONE
luni Bună
OZONE
luni Bună
PM10
marţi Moderată
OZONE
marţi Bună
PM10

Adâncimea zapezii

Station Depth Elevation
No new snow has been reported.

Earthquake Activity

Oraş Distance Mag. Time & Date
No recent earthquake activity has been reported nearby.
Minimum magnitude displayed is 2.5.

Coastal Water Temperatures

Locul Temperatura
No Stations Reporting

Nearby Weather Stations